createdAt,value
2022-12-12T00:01:21.745Z,72.27
2022-12-12T00:03:49.454Z,72.10
2022-12-12T00:06:17.114Z,73.40
2022-12-12T00:08:44.654Z,72.14
2022-12-12T00:11:13.748Z,71.45
2022-12-12T00:13:41.656Z,71.81
2022-12-12T00:16:11.347Z,72.04
2022-12-12T00:18:41.258Z,73.17
2022-12-12T00:21:15.378Z,71.81
2022-12-12T00:23:43.353Z,71.67
2022-12-12T00:26:17.387Z,70.95
2022-12-12T00:28:44.949Z,71.53
2022-12-12T00:31:14.367Z,73.38
2022-12-12T00:33:43.545Z,72.23
2022-12-12T00:36:12.519Z,72.61
2022-12-12T00:38:40.292Z,72.63
2022-12-12T00:41:09.259Z,72.77
2022-12-12T00:43:36.975Z,72.86
2022-12-12T00:46:05.309Z,73.86
2022-12-12T00:48:34.444Z,74.20
2022-12-12T00:51:08.917Z,73.79
2022-12-12T00:53:37.248Z,73.59
2022-12-12T00:56:05.838Z,73.42
2022-12-12T00:58:34.607Z,73.53
2022-12-12T01:01:06.394Z,74.10
2022-12-12T01:03:37.283Z,74.34
2022-12-12T01:06:05.658Z,75.04
2022-12-12T01:08:33.497Z,76.28
2022-12-12T01:11:01.084Z,76.73
2022-12-12T01:13:29.122Z,76.74
2022-12-12T01:15:56.899Z,77.21
2022-12-12T01:18:24.559Z,77.61
2022-12-12T01:20:53.549Z,77.44
2022-12-12T01:23:21.121Z,77.49
2022-12-12T01:25:48.696Z,76.11
2022-12-12T01:28:16.364Z,76.11
2022-12-12T01:30:43.957Z,76.31
2022-12-12T01:33:11.541Z,77.02
2022-12-12T01:35:39.144Z,77.36
2022-12-12T01:38:08.071Z,77.64
2022-12-12T01:40:35.923Z,78.35
2022-12-12T01:43:03.518Z,78.18
2022-12-12T01:46:20.217Z,78.41
2022-12-12T01:48:53.359Z,78.52
2022-12-12T01:51:23.274Z,79.13
2022-12-12T01:53:58.182Z,79.93
2022-12-12T01:56:26.441Z,79.81
2022-12-12T01:58:55.310Z,80.54
2022-12-12T02:01:24.182Z,80.66
2022-12-12T02:03:51.972Z,81.01
2022-12-12T02:06:23.467Z,81.05
2022-12-12T02:08:55.826Z,81.12
2022-12-12T02:11:23.455Z,80.92
2022-12-12T02:13:51.889Z,80.91
2022-12-12T02:16:29.782Z,80.36
2022-12-12T02:19:07.951Z,79.88
2022-12-12T02:21:44.194Z,81.15
2022-12-12T02:25:01.813Z,82.18
2022-12-12T02:28:00.474Z,82.63
2022-12-12T02:30:41.250Z,83.06
2022-12-12T02:33:22.556Z,83.23
2022-12-12T02:36:00.458Z,83.52
2022-12-12T02:38:32.425Z,83.57
2022-12-12T02:41:10.189Z,83.88
2022-12-12T02:43:42.763Z,83.71
2022-12-12T02:46:16.136Z,83.78
2022-12-12T02:48:50.643Z,83.75
2022-12-12T02:51:20.169Z,84.71
2022-12-12T02:53:47.839Z,85.22
2022-12-12T02:56:48.546Z,85.61
2022-12-12T02:59:21.743Z,85.36
2022-12-12T03:02:30.818Z,84.99
2022-12-12T03:05:46.223Z,85.37
2022-12-12T03:08:31.784Z,85.63
2022-12-12T03:11:03.446Z,85.85
2022-12-12T03:13:38.723Z,85.23
2022-12-12T03:16:18.940Z,85.21
2022-12-12T03:18:57.737Z,84.90
2022-12-12T03:21:36.419Z,85.33
2022-12-12T03:24:07.828Z,84.78
2022-12-12T03:26:44.292Z,83.63
2022-12-12T03:29:16.202Z,81.87
2022-12-12T03:31:47.898Z,80.93
2022-12-12T03:34:20.155Z,81.16
2022-12-12T03:36:53.162Z,80.03
2022-12-12T03:39:27.484Z,79.87
2022-12-12T03:41:59.328Z,80.61
2022-12-12T03:44:39.785Z,79.98
2022-12-12T03:47:13.218Z,80.81
2022-12-12T03:49:46.447Z,81.26
2022-12-12T03:52:21.578Z,81.66
2022-12-12T03:54:54.813Z,81.76
2022-12-12T03:57:28.555Z,81.26
2022-12-12T04:00:02.470Z,80.97
2022-12-12T04:02:35.928Z,80.90
2022-12-12T04:05:14.886Z,81.07
2022-12-12T04:07:49.521Z,81.46
2022-12-12T04:10:34.947Z,81.12
2022-12-12T04:13:11.925Z,80.37
2022-12-12T04:15:52.692Z,80.08
2022-12-12T04:18:28.010Z,80.21
2022-12-12T04:21:33.065Z,80.86
2022-12-12T04:24:14.184Z,81.05
2022-12-12T04:26:47.450Z,81.10
2022-12-12T04:29:30.266Z,82.54
2022-12-12T04:32:01.856Z,82.25
2022-12-12T04:34:37.987Z,83.58
2022-12-12T04:37:07.782Z,84.14
2022-12-12T04:39:39.590Z,84.40
2022-12-12T04:42:11.159Z,84.62
2022-12-12T04:44:43.425Z,84.28
2022-12-12T04:47:12.627Z,84.21
2022-12-12T04:49:42.404Z,84.53
2022-12-12T04:52:13.338Z,85.00
2022-12-12T04:54:45.828Z,84.94
2022-12-12T04:57:21.143Z,84.96
2022-12-12T04:59:49.724Z,84.84
2022-12-12T05:02:23.133Z,84.89
2022-12-12T05:04:57.172Z,85.25
2022-12-12T05:07:39.566Z,85.23
2022-12-12T05:10:14.309Z,85.53
2022-12-12T05:12:44.691Z,85.79
2022-12-12T05:15:12.907Z,85.79
2022-12-12T05:17:44.538Z,85.84
2022-12-12T05:20:12.512Z,86.20
2022-12-12T05:22:40.160Z,86.37
2022-12-12T05:25:10.036Z,86.36
2022-12-12T05:27:38.005Z,86.33
2022-12-12T05:30:06.936Z,85.70
2022-12-12T05:32:34.782Z,85.68
2022-12-12T05:35:02.441Z,85.61
2022-12-12T05:37:30.017Z,85.47
2022-12-12T05:39:57.613Z,85.47
2022-12-12T05:42:26.596Z,85.55
2022-12-12T05:44:54.176Z,85.59
2022-12-12T05:47:21.832Z,85.60
2022-12-12T05:49:49.465Z,85.68
2022-12-12T05:52:17.216Z,85.64
2022-12-12T05:54:44.851Z,85.80
2022-12-12T05:57:12.550Z,85.22
2022-12-12T05:59:41.456Z,85.34
2022-12-12T06:02:09.152Z,85.15
2022-12-12T06:04:36.778Z,85.78
2022-12-12T06:07:04.407Z,85.39
2022-12-12T06:09:33.315Z,85.82
2022-12-12T06:12:00.953Z,85.20
2022-12-12T06:14:28.668Z,84.95
2022-12-12T06:16:58.602Z,84.99
2022-12-12T06:19:26.254Z,85.56
2022-12-12T06:21:53.886Z,85.45
2022-12-12T06:24:21.434Z,85.46
2022-12-12T06:26:49.103Z,85.37
2022-12-12T06:29:16.743Z,85.36
2022-12-12T06:31:44.499Z,85.30
2022-12-12T06:34:13.467Z,85.24
2022-12-12T06:36:41.134Z,85.05
2022-12-12T06:39:09.714Z,85.36
2022-12-12T06:41:37.826Z,85.75
2022-12-12T06:44:05.762Z,85.56
2022-12-12T06:46:33.434Z,83.51
2022-12-12T06:49:01.114Z,83.04
2022-12-12T06:51:33.360Z,83.77
2022-12-12T06:54:00.953Z,83.36
2022-12-12T06:56:28.942Z,84.37
2022-12-12T06:58:57.044Z,83.31
2022-12-12T07:01:25.212Z,83.48
2022-12-12T07:03:53.906Z,82.73
2022-12-12T07:06:23.324Z,82.50
2022-12-12T07:08:52.670Z,82.51
2022-12-12T07:11:22.811Z,83.13
2022-12-12T07:13:50.800Z,83.71
2022-12-12T07:16:20.407Z,83.39
2022-12-12T07:18:48.549Z,83.71
2022-12-12T07:21:18.170Z,84.59
2022-12-12T07:23:46.094Z,84.82
2022-12-12T07:26:17.369Z,84.82
2022-12-12T07:28:45.058Z,84.46
2022-12-12T07:31:14.293Z,84.43
2022-12-12T07:33:44.377Z,84.64
2022-12-12T07:36:13.160Z,84.79
2022-12-12T07:38:41.043Z,84.26
2022-12-12T07:41:10.450Z,84.19
2022-12-12T07:43:43.700Z,83.48
2022-12-12T07:46:16.195Z,83.26
2022-12-12T07:48:44.558Z,83.28
2022-12-12T07:51:13.324Z,83.67
2022-12-12T07:53:41.304Z,83.63
2022-12-12T07:56:10.803Z,83.67
2022-12-12T07:58:39.877Z,83.67
2022-12-12T08:01:14.928Z,83.66
2022-12-12T08:03:43.171Z,82.78
2022-12-12T08:06:11.094Z,82.55
2022-12-12T08:08:39.083Z,82.65
2022-12-12T08:11:07.971Z,82.70
2022-12-12T08:13:36.669Z,82.54
2022-12-12T08:16:08.080Z,82.70
2022-12-12T08:18:36.327Z,82.41
2022-12-12T08:21:08.068Z,82.44
2022-12-12T08:23:36.803Z,81.65
2022-12-12T08:26:06.882Z,81.31
2022-12-12T08:28:34.453Z,81.85
2022-12-12T08:31:02.175Z,81.69
2022-12-12T08:33:31.327Z,80.98
2022-12-12T08:35:58.967Z,81.40
2022-12-12T08:38:26.765Z,81.72
2022-12-12T08:40:54.402Z,82.13
2022-12-12T08:43:21.960Z,82.32
2022-12-12T08:45:49.582Z,81.91
2022-12-12T08:48:17.218Z,81.95
2022-12-12T08:50:46.209Z,82.03
2022-12-12T08:53:13.856Z,81.80
2022-12-12T08:55:42.218Z,81.58
2022-12-12T08:58:09.873Z,81.96
2022-12-12T09:00:37.637Z,81.64
2022-12-12T09:03:05.661Z,81.18
2022-12-12T09:05:33.311Z,81.74
2022-12-12T09:08:02.321Z,81.07
2022-12-12T09:10:30.465Z,80.85
2022-12-12T09:12:58.176Z,80.62
2022-12-12T09:15:25.796Z,79.90
2022-12-12T09:17:53.412Z,79.15
2022-12-12T09:20:21.005Z,78.00
2022-12-12T09:22:48.621Z,77.76
2022-12-12T09:25:17.659Z,78.33
2022-12-12T09:27:45.270Z,77.96
2022-12-12T09:30:13.820Z,78.41
2022-12-12T09:32:45.239Z,77.72
2022-12-12T09:37:41.103Z,74.79
2022-12-12T09:40:12.046Z,75.89
2022-12-12T09:42:48.907Z,75.04
2022-12-12T09:45:17.477Z,73.84
2022-12-12T09:47:48.495Z,73.90
2022-12-12T09:50:24.351Z,73.99
2022-12-12T09:52:53.596Z,72.84
2022-12-12T09:55:35.583Z,72.83
2022-12-12T09:58:09.695Z,71.61
2022-12-12T10:00:41.093Z,71.61
2022-12-12T10:03:28.938Z,69.74
2022-12-12T10:06:28.520Z,70.57
2022-12-12T10:09:07.220Z,70.46
2022-12-12T10:11:54.811Z,69.99
2022-12-12T10:14:28.929Z,68.62
2022-12-12T10:16:59.539Z,68.51
2022-12-12T10:19:31.194Z,69.78
2022-12-12T10:22:05.464Z,70.15
2022-12-12T10:24:38.080Z,67.87
2022-12-12T10:27:11.385Z,66.08
2022-12-12T10:29:42.461Z,65.45
2022-12-12T10:32:22.035Z,65.66
2022-12-12T10:35:03.360Z,66.67
2022-12-12T10:37:42.564Z,67.17
2022-12-12T10:40:25.220Z,66.94
2022-12-12T10:42:58.908Z,66.53
2022-12-12T10:45:49.221Z,64.45
2022-12-12T10:48:16.932Z,63.92
2022-12-12T10:50:46.067Z,65.69
2022-12-12T10:53:14.044Z,64.37
2022-12-12T10:55:48.846Z,64.29
2022-12-12T10:58:18.154Z,65.24
2022-12-12T11:00:49.526Z,65.08
2022-12-12T11:03:26.482Z,65.01
2022-12-12T11:05:55.027Z,64.57
2022-12-12T11:08:27.880Z,64.91
2022-12-12T11:11:08.320Z,65.47
2022-12-12T11:13:47.250Z,65.09
2022-12-12T11:16:19.488Z,65.82
2022-12-12T11:19:02.362Z,66.00
2022-12-12T11:21:32.655Z,67.05
2022-12-12T11:24:01.461Z,67.42
2022-12-12T11:26:30.111Z,67.56
2022-12-12T11:29:00.792Z,67.29
2022-12-12T11:31:35.273Z,67.46
2022-12-12T11:34:06.807Z,66.78
2022-12-12T11:36:37.324Z,67.32
2022-12-12T11:39:16.325Z,67.42
2022-12-12T11:41:59.321Z,70.87
2022-12-12T11:44:31.518Z,71.29
2022-12-12T11:47:21.326Z,71.49
2022-12-12T11:49:50.776Z,70.89
2022-12-12T11:52:20.237Z,71.32
2022-12-12T11:54:48.109Z,72.48
2022-12-12T11:57:30.169Z,71.62
2022-12-12T12:00:12.061Z,70.58
2022-12-12T12:03:18.716Z,69.90
2022-12-12T12:06:00.544Z,69.12
2022-12-12T12:08:41.928Z,68.95
2022-12-12T12:11:20.387Z,68.68
2022-12-12T12:14:03.543Z,67.84
2022-12-12T12:16:41.499Z,66.33
2022-12-12T12:19:16.931Z,64.16
2022-12-12T12:21:58.192Z,61.23
2022-12-12T12:24:50.249Z,60.92
2022-12-12T12:27:26.913Z,59.38
2022-12-12T12:30:30.351Z,60.08
2022-12-12T12:33:12.528Z,61.54
2022-12-12T12:35:54.111Z,61.51
2022-12-12T12:38:27.707Z,62.60
2022-12-12T12:41:20.614Z,61.80
2022-12-12T12:44:02.401Z,62.00
2022-12-12T12:46:40.751Z,66.26
2022-12-12T12:49:17.637Z,65.09
2022-12-12T12:51:50.925Z,67.54
2022-12-12T12:54:25.143Z,66.91
2022-12-12T12:56:59.830Z,67.45
2022-12-12T12:59:34.096Z,66.94
2022-12-12T13:02:10.816Z,68.63
2022-12-12T13:04:46.612Z,70.67
2022-12-12T13:07:22.877Z,69.04
2022-12-12T13:09:58.062Z,68.04
2022-12-12T13:12:30.635Z,68.85
2022-12-12T13:15:03.095Z,68.72
2022-12-12T13:17:45.267Z,69.90
2022-12-12T13:20:17.106Z,68.86
2022-12-12T13:22:54.851Z,67.42
2022-12-12T13:25:34.157Z,67.13
2022-12-12T13:28:06.885Z,67.63
2022-12-12T13:30:49.670Z,67.55
2022-12-12T13:33:37.616Z,67.53
2022-12-12T13:36:13.600Z,65.04
2022-12-12T13:38:46.430Z,65.53
2022-12-12T13:41:15.392Z,66.28
2022-12-12T13:43:47.120Z,67.10
2022-12-12T13:46:37.013Z,66.35
2022-12-12T13:49:29.570Z,62.45
2022-12-12T13:52:29.203Z,60.21
2022-12-12T13:55:19.074Z,61.03
2022-12-12T13:58:33.055Z,65.43
2022-12-12T14:01:40.122Z,66.58
2022-12-12T14:04:26.171Z,61.17
2022-12-12T14:07:01.738Z,64.25
2022-12-12T14:09:47.051Z,61.31
2022-12-12T14:12:21.983Z,63.21
2022-12-12T14:14:58.210Z,67.68
2022-12-12T14:17:30.157Z,68.24
2022-12-12T14:19:59.916Z,64.64
2022-12-12T14:22:28.336Z,63.62
2022-12-12T14:25:08.443Z,65.63
2022-12-12T14:28:03.209Z,66.71
2022-12-12T14:31:18.572Z,68.10
2022-12-12T14:34:18.140Z,69.78
2022-12-12T14:37:22.526Z,70.23
2022-12-12T14:40:00.340Z,70.52
2022-12-12T14:43:19.777Z,70.61
2022-12-12T14:45:27.189Z,71.32
2022-12-12T14:48:14.977Z,71.07
2022-12-12T14:50:48.904Z,71.46
2022-12-12T14:53:19.812Z,72.62
2022-12-12T14:55:53.540Z,72.44
2022-12-12T14:58:23.592Z,72.56
2022-12-12T15:00:53.879Z,72.76
2022-12-12T15:03:27.332Z,72.94
2022-12-12T15:06:31.248Z,73.26
2022-12-12T15:09:09.555Z,72.98
2022-12-12T15:11:37.228Z,73.00
2022-12-12T15:14:05.262Z,73.11
2022-12-12T15:16:46.063Z,73.08
2022-12-12T15:19:19.375Z,73.82
2022-12-12T15:21:48.874Z,73.30
2022-12-12T15:24:22.712Z,74.09
2022-12-12T15:26:52.718Z,74.59
2022-12-12T15:29:23.891Z,74.63
2022-12-12T15:31:59.649Z,74.97
2022-12-12T15:34:33.393Z,75.33
2022-12-12T15:37:27.308Z,75.34
2022-12-12T15:40:21.160Z,75.75
2022-12-12T15:42:54.358Z,76.24
2022-12-12T15:45:26.836Z,76.92
2022-12-12T15:47:56.597Z,78.24
2022-12-12T15:50:28.217Z,79.14
2022-12-12T15:53:04.367Z,79.46
2022-12-12T15:55:32.896Z,79.74
2022-12-12T15:58:00.686Z,80.67
2022-12-12T16:00:33.252Z,80.42
2022-12-12T16:03:03.990Z,80.83
2022-12-12T16:05:33.586Z,81.32
2022-12-12T16:08:38.222Z,81.31
2022-12-12T16:11:08.323Z,81.53
2022-12-12T16:13:38.438Z,82.19
2022-12-12T16:16:43.429Z,82.04
2022-12-12T16:19:37.137Z,82.49
2022-12-12T16:22:06.599Z,82.29
2022-12-12T16:24:46.787Z,82.19
2022-12-12T16:27:15.451Z,82.80
2022-12-12T16:29:43.282Z,83.44
2022-12-12T16:32:14.776Z,83.97
2022-12-12T16:34:42.990Z,84.50
2022-12-12T16:37:15.139Z,84.71
2022-12-12T16:39:44.193Z,84.65
2022-12-12T16:42:16.240Z,84.60
2022-12-12T16:44:44.704Z,85.20
2022-12-12T16:47:16.788Z,85.05
2022-12-12T16:49:44.708Z,85.03
2022-12-12T16:52:14.298Z,85.26
2022-12-12T16:54:42.084Z,85.32
2022-12-12T16:57:11.248Z,85.62
2022-12-12T16:59:39.374Z,85.65
2022-12-12T17:02:18.331Z,85.79
2022-12-12T17:04:45.924Z,85.73
2022-12-12T17:07:13.867Z,85.57
2022-12-12T17:09:41.532Z,85.71
2022-12-12T17:12:11.636Z,85.67
2022-12-12T17:14:40.595Z,86.33
2022-12-12T17:17:08.622Z,86.00
2022-12-12T17:19:36.378Z,85.90
2022-12-12T17:22:04.716Z,87.01
2022-12-12T17:24:34.623Z,87.10
2022-12-12T17:27:02.451Z,87.20
2022-12-12T17:29:30.031Z,87.40
2022-12-12T17:31:59.170Z,87.50
2022-12-12T17:34:26.881Z,87.57
2022-12-12T17:36:54.503Z,87.34
2022-12-12T17:39:22.865Z,86.95
2022-12-12T17:41:50.487Z,86.88
2022-12-12T17:44:18.378Z,87.03
2022-12-12T17:46:46.149Z,87.89
2022-12-12T17:49:15.037Z,88.28
2022-12-12T17:51:42.770Z,88.16
2022-12-12T17:54:10.494Z,88.22
2022-12-12T17:56:38.189Z,88.58
2022-12-12T17:59:08.182Z,88.20
2022-12-12T18:01:36.294Z,88.36
2022-12-12T18:04:05.395Z,89.09
2022-12-12T18:06:35.974Z,89.14
2022-12-12T18:09:04.891Z,89.00
2022-12-12T18:11:35.605Z,89.25
2022-12-12T18:14:04.963Z,88.97
2022-12-12T18:16:34.302Z,89.15
2022-12-12T18:19:03.405Z,88.91
2022-12-12T18:21:59.639Z,89.56
2022-12-12T18:24:23.779Z,89.39
2022-12-12T18:26:52.862Z,88.81
2022-12-12T18:29:21.020Z,89.22
2022-12-12T18:31:48.810Z,89.41
2022-12-12T18:34:16.917Z,89.31
2022-12-12T18:36:44.871Z,89.31
2022-12-12T18:39:12.891Z,89.61
2022-12-12T18:41:41.990Z,89.53
2022-12-12T18:44:13.014Z,89.35
2022-12-12T18:46:43.476Z,90.07
2022-12-12T18:49:13.632Z,90.07
2022-12-12T18:51:41.803Z,90.37
2022-12-12T18:54:14.732Z,89.84
2022-12-12T18:56:45.688Z,89.96
2022-12-12T18:59:14.470Z,89.15
2022-12-12T19:01:42.348Z,90.23
2022-12-12T19:04:14.118Z,90.35
2022-12-12T19:06:44.384Z,90.25
2022-12-12T19:09:15.096Z,90.44
2022-12-12T19:11:44.648Z,89.88
2022-12-12T19:14:15.549Z,89.92
2022-12-12T19:16:44.259Z,89.97
2022-12-12T19:19:12.719Z,90.51
2022-12-12T19:21:40.872Z,90.49
2022-12-12T19:24:12.075Z,89.77
2022-12-12T19:26:41.114Z,90.09
2022-12-12T19:29:13.678Z,90.00
2022-12-12T19:31:41.434Z,90.45
2022-12-12T19:34:11.608Z,90.55
2022-12-12T19:36:40.291Z,90.76
2022-12-12T19:39:08.986Z,91.26
2022-12-12T19:41:38.361Z,90.80
2022-12-12T19:44:08.906Z,90.61
2022-12-12T19:46:37.883Z,90.97
2022-12-12T19:49:08.708Z,91.04
2022-12-12T19:51:39.281Z,90.93
2022-12-12T19:54:09.983Z,91.00
2022-12-12T19:56:40.857Z,91.23
2022-12-12T19:59:09.542Z,91.29
2022-12-12T20:01:39.015Z,90.87
2022-12-12T20:04:09.514Z,90.46
2022-12-12T20:06:44.665Z,90.70
2022-12-12T20:09:13.764Z,91.31
2022-12-12T20:11:43.433Z,90.92
2022-12-12T20:14:14.619Z,90.87
2022-12-12T20:16:44.108Z,90.48
2022-12-12T20:19:13.645Z,91.43
2022-12-12T20:22:00.782Z,90.87
2022-12-12T20:24:29.981Z,90.84
2022-12-12T20:26:59.417Z,90.98
2022-12-12T20:29:27.426Z,90.90
2022-12-12T20:31:56.924Z,91.12
2022-12-12T20:34:25.275Z,91.26
2022-12-12T20:36:55.526Z,90.95
2022-12-12T20:39:24.737Z,90.79
2022-12-12T20:41:54.211Z,90.95
2022-12-12T20:44:22.413Z,90.50
2022-12-12T20:46:49.995Z,90.92
2022-12-12T20:49:22.349Z,90.79
2022-12-12T20:51:58.637Z,91.00
2022-12-12T20:54:29.422Z,91.13
2022-12-12T20:56:58.432Z,90.96
2022-12-12T20:59:26.481Z,90.83
2022-12-12T21:01:54.581Z,90.99
2022-12-12T21:04:24.100Z,90.73
2022-12-12T21:06:52.303Z,91.11
2022-12-12T21:09:25.974Z,91.36
2022-12-12T21:11:55.377Z,90.95
2022-12-12T21:14:23.273Z,91.15
2022-12-12T21:16:51.963Z,90.96
2022-12-12T21:19:19.817Z,90.97
2022-12-12T21:21:48.788Z,91.09
2022-12-12T21:24:17.953Z,90.96
2022-12-12T21:26:45.768Z,90.71
2022-12-12T21:29:13.988Z,91.13
2022-12-12T21:31:49.952Z,91.25
2022-12-12T21:34:20.475Z,91.12
2022-12-12T21:36:51.057Z,90.88
2022-12-12T21:39:18.834Z,90.09
2022-12-12T21:41:47.063Z,90.61
2022-12-12T21:44:14.677Z,90.74
2022-12-12T21:46:44.023Z,90.21
2022-12-12T21:49:25.891Z,89.96
2022-12-12T21:51:55.681Z,89.98
2022-12-12T21:54:23.581Z,90.53
2022-12-12T21:56:51.174Z,89.97
2022-12-12T21:59:18.781Z,90.20
2022-12-12T22:01:46.380Z,90.75
2022-12-12T22:04:14.257Z,90.66
2022-12-12T22:06:41.824Z,90.71
2022-12-12T22:09:12.484Z,90.57
2022-12-12T22:11:50.074Z,90.93
2022-12-12T22:14:21.717Z,90.56
2022-12-12T22:16:49.910Z,89.94
2022-12-12T22:19:18.395Z,90.24
2022-12-12T22:21:47.449Z,89.78
2022-12-12T22:24:17.042Z,90.57
2022-12-12T22:26:46.748Z,89.90
2022-12-12T22:29:16.182Z,89.32
2022-12-12T22:31:45.775Z,89.73
2022-12-12T22:34:15.570Z,89.87
2022-12-12T22:36:43.948Z,89.41
2022-12-12T22:39:16.805Z,90.19
2022-12-12T22:41:45.019Z,90.22
2022-12-12T22:44:16.564Z,89.45
2022-12-12T22:46:44.939Z,90.38
2022-12-12T22:49:14.283Z,89.65
2022-12-12T22:51:42.547Z,89.90
2022-12-12T22:54:10.351Z,90.56
2022-12-12T22:56:40.684Z,90.09
2022-12-12T22:59:09.696Z,90.59
2022-12-12T23:01:37.286Z,90.25
2022-12-12T23:04:05.477Z,89.94
2022-12-12T23:06:34.808Z,90.58
2022-12-12T23:09:05.297Z,90.47
2022-12-12T23:11:34.181Z,89.77
2022-12-12T23:14:07.202Z,89.61
2022-12-12T23:16:35.995Z,89.43
2022-12-12T23:19:05.422Z,88.81
2022-12-12T23:21:33.571Z,89.88
2022-12-12T23:24:01.244Z,89.81
2022-12-12T23:26:30.605Z,89.50
2022-12-12T23:28:59.033Z,89.40
2022-12-12T23:31:29.575Z,88.88
2022-12-12T23:33:59.423Z,89.57
2022-12-12T23:36:28.295Z,89.32
2022-12-12T23:38:56.547Z,89.53
2022-12-12T23:41:24.660Z,89.95
2022-12-12T23:43:52.649Z,89.66
2022-12-12T23:46:29.201Z,88.83
2022-12-12T23:49:00.181Z,88.59
2022-12-12T23:51:30.893Z,89.20
2022-12-12T23:53:59.655Z,88.72
2022-12-12T23:56:28.673Z,89.10
2022-12-12T23:58:58.111Z,89.18
